Terminal Aerodrome Forecast
Issued by NWS

Home | Current Version | Previous Version | Text Only | Print | Product List | Glossary On
Versions: 1 2 3 4 5 6 7 8 9 10 11 12 13 14 15
000
FTUS45 KABQ 280800 AAA
TAFTCC
TAF AMD
KTCC 280853Z 2809/2906 01018KT P6SM BKN035 OVC050
     FM281300 06010KT P6SM SCT035 BKN050
     FM281500 10008KT P6SM FEW070 BKN100
     FM282100 16011KT P6SM SCT070 SCT120
     FM290100 23010KT P6SM VCSH BKN070=

USA.gov is the U.S. government's official web portal to all federal, state and local government web resources and services.